Terminal Aerodrome Forecast
Issued by NWS

Home | Current Version | Previous Version | Text Only | Print | Product List | Glossary On
Versions: 1 2 3 4 5 6 7 8 9 10 11 12 13 14 15 16 17 18 19 20
170
FTUS43 KPAH 201733
TAFCGI
TAF
KCGI 201733Z 2018/2118 16009G15KT P6SM SCT030 BKN200
     FM210400 18004KT P6SM BKN050
     FM210800 18003KT 6SM -SHRA BR BKN035
     FM211200 VRB03KT 4SM -SHRA BKN025
      TEMPO 2114/2118 2SM -TSRA BR OVC015CB=

USA.gov is the U.S. government's official web portal to all federal, state and local government web resources and services.